RJTE(METAR)
08/13 14:00
METAR RJTE 130500Z 21006KT 130V260 9999 FEW020 BKN230 32/26 Q1008
RMK 1CU020 A2978=
戻る
トップページへ戻る
IMOC Co,.Ltd.